Portada
METAR-TAF:

METAR-TAF

Aeropuertos :

Tabuk, Arabia Saudita

latitud: 28-22N, longitud: 036-36E, altitud: 778 m

Observación

El informe se hizo hace 1 hora y 9 minutos, a las 02:00 UTC
Viento 7 kt del este
Temperatura 8°C
Humedad 57%
Presión 1021 hPa
Visibilidad 10 km o más
sin nubes por debajo de 1500 m y sin presencia de cumulonimbus.

METAR: OETB 270200Z 09007KT CAVOK 08/00 Q1021 NOSIG

Hora: 06:09 (03:09 UTC)

Pronóstico

El informe se hizo hace 4 horas y 9 minutos, a las 23:00 UTC
Pronóstico válido del 27 a las 00 UTC al 28 a las 06 UTC
Viento 8 kt del este-sureste
Visibilidad 10 km o más
sin nubes por debajo de 1500 m y sin presencia de cumulonimbus.
Evolucionando progresivamente
del 27 a las 08 UTC al 27 a las 10 UTC
Viento 10 kt del norte-noreste

TAF: OETB 262300Z 2700/2806 12008KT CAVOK BECMG 2708/2710 03010KT

Observaciones y pronósticos meteorológicos de más de 4000 aeropuertos (mensajes METAR y TAF).

Los puntos amarillos y rojos representan las estaciones disponibles.

Ponga el ratón en el punto deseado para ver el nombre de la estación.

Haga clic para ver las observaciones y los pronósticos meteorológicos.

Para cambiar el mapa : haga clic en los botones verdes con una cruz de color negro para hacer un zoom, en el botón verde con un guión para alejar o en las flechas verdes para mapas adyacentes.


METAR-TAF: